John Paul Eckstein — WDH6438 — position and weather

sailwx.info

Track history (hours):
 
Tides and Currents Weather Stations Pressure Air Temp Water Temp Dewpoint Dewpoint Depression Visibility Wind Speed Wind Dir Waves Ship Positions

John Paul Eckstein

Owner: Marquette Transportation Co. LLC, Paducah, KY. More information available from US FCC via Universal Licensing System and Coast Guard Vessel Documentation Center.

Last reported at 2018-Feb-22 14:25 UTC. Time now 2018-Feb-22 18:44 UTC.
Position N 38°33' W 090°15'.

Length 51 m; draft 3.2 m.

Type: Towing. MMSI: 367637960.

Date/timePositionNaut miles runAvg speedWind from/ knotsBaromVisibWave heightAir tempDewpointWater temp
2018-Feb-22 14:25N 38°33' W 090°15'4 8.3
2018-Feb-22 13:53N 38°36' W 090°11'4 9.8
2018-Feb-22 13:31N 38°40' W 090°11'2 4.3
2018-Feb-22 13:00N 38°42' W 090°11'0 0.9
2018-Feb-22 12:30N 38°42' W 090°11'1 1.5
2018-Feb-22 12:01N 38°43' W 090°10'1 2.7
2018-Feb-22 11:30N 38°44' W 090°10'2 4.1
2018-Feb-22 11:01N 38°46' W 090°08'1 2.4
2018-Feb-22 10:30N 38°47' W 090°08'2 4.6
2018-Feb-22 10:00N 38°49' W 090°07'0 0.5
2018-Feb-22 09:31N 38°49' W 090°07'0 0.0
2018-Feb-22 09:01N 38°49' W 090°07'0 0.0
2018-Feb-22 08:31N 38°49' W 090°07'0 0.4
2018-Feb-22 08:00N 38°49' W 090°07'0 0.1
2018-Feb-22 07:30N 38°49' W 090°07'0 0.0
2018-Feb-22 07:00N 38°49' W 090°07'0 0.0
2018-Feb-22 06:30N 38°49' W 090°07'0 0.0
2018-Feb-22 05:59N 38°49' W 090°07'0 0.0
2018-Feb-22 05:30N 38°49' W 090°07'0 0.0
2018-Feb-22 05:00N 38°49' W 090°07'0 0.0
2018-Feb-22 04:29N 38°49' W 090°07'0 0.0
2018-Feb-22 02:38N 38°49' W 090°07'0 0.0
2018-Feb-22 02:31N 38°49' W 090°07'0 0.0
2018-Feb-22 02:01N 38°49' W 090°07'0 0.0
2018-Feb-22 01:28N 38°49' W 090°07'0 0.0
2018-Feb-22 01:00N 38°49' W 090°07'0 0.0
2018-Feb-22 00:30N 38°49' W 090°07'0 0.0
2018-Feb-22 00:00N 38°49' W 090°07'0 0.1
2018-Feb-21 23:30N 38°49' W 090°07'2 3.7
2018-Feb-21 23:01N 38°47' W 090°07'3 6.9
2018-Feb-21 22:31N 38°44' W 090°09'2 4.8
2018-Feb-21 22:01N 38°42' W 090°11'0 0.6
2018-Feb-21 21:30N 38°42' W 090°11'2 4.0
2018-Feb-21 21:00N 38°40' W 090°11'3 5.6
2018-Feb-21 20:30N 38°37' W 090°11'  
2018-Feb-13 21:09N 32°45' W 091°09'1 4.4
2018-Feb-13 21:00N 32°44' W 091°09'4 0.9
2018-Feb-13 16:24N 32°40' W 091°07'3 3.6
2018-Feb-13 15:32N 32°38' W 091°09'0 0.8
2018-Feb-13 15:18N 32°38' W 091°09'0 0.1
2018-Feb-13 15:00N 32°38' W 091°09'0 0.0
2018-Feb-13 14:25N 32°38' W 091°09'2 3.9
2018-Feb-13 14:01N 32°37' W 091°09'2 4.0
2018-Feb-13 13:31N 32°35' W 091°07'2 4.2
2018-Feb-13 13:00N 32°33' W 091°06'2 4.2
2018-Feb-13 12:30N 32°31' W 091°06'2 4.6
2018-Feb-13 12:01N 32°29' W 091°07'2 4.3
2018-Feb-13 11:30N 32°27' W 091°05'2 4.5
2018-Feb-13 11:01N 32°26' W 091°03'2 4.4
2018-Feb-13 10:30N 32°25' W 091°00'2 3.8
2018-Feb-13 10:01N 32°24' W 090°59'2 3.7
2018-Feb-13 09:31N 32°22' W 091°00'2 3.8
2018-Feb-13 09:00N 32°21' W 090°58'2 3.8
2018-Feb-13 08:31N 32°21' W 090°56'2 4.3
2018-Feb-13 08:01N 32°20' W 090°54'2 3.7
2018-Feb-13 07:30N 32°18' W 090°55'0 0.6
2018-Feb-13 07:00N 32°18' W 090°55'2 3.9
2018-Feb-13 06:31N 32°17' W 090°57'2 4.2
2018-Feb-13 06:01N 32°15' W 090°59'2 3.7
2018-Feb-13 05:31N 32°13' W 090°59'2 4.0
2018-Feb-13 05:01N 32°11' W 090°60'2 4.1
2018-Feb-13 04:30N 32°09' W 091°00'2 4.1
2018-Feb-13 04:01N 32°07' W 091°01'2 3.6
2018-Feb-13 03:30N 32°07' W 091°03'2 4.0
2018-Feb-13 02:59N 32°08' W 091°05'2 3.2
2018-Feb-13 02:31N 32°07' W 091°06'2 4.9
2018-Feb-13 02:00N 32°05' W 091°04'  
Track history (hours):
 
Tides and Currents Weather Stations Pressure Air Temp Water Temp Dewpoint Dewpoint Depression Visibility Wind Speed Wind Dir Waves Ship Positions

John Paul Eckstein

Owner: Marquette Transportation Co. LLC, Paducah, KY. More information available from US FCC via Universal Licensing System and Coast Guard Vessel Documentation Center.

Last reported at 2018-Feb-22 14:25 UTC. Time now 2018-Feb-22 18:44 UTC.
Position N 38°33' W 090°15'.

Length 51 m; draft 3.2 m.

Type: Towing. MMSI: 367637960.

Date/timePositionNaut miles runAvg speedWind from/ knotsBaromVisibWave heightAir tempDewpointWater temp
2018-Feb-22 14:25N 38°33' W 090°15'4 8.3
2018-Feb-22 13:53N 38°36' W 090°11'4 9.8
2018-Feb-22 13:31N 38°40' W 090°11'2 4.3
2018-Feb-22 13:00N 38°42' W 090°11'0 0.9
2018-Feb-22 12:30N 38°42' W 090°11'1 1.5
2018-Feb-22 12:01N 38°43' W 090°10'1 2.7
2018-Feb-22 11:30N 38°44' W 090°10'2 4.1
2018-Feb-22 11:01N 38°46' W 090°08'1 2.4
2018-Feb-22 10:30N 38°47' W 090°08'2 4.6
2018-Feb-22 10:00N 38°49' W 090°07'0 0.5
2018-Feb-22 09:31N 38°49' W 090°07'0 0.0
2018-Feb-22 09:01N 38°49' W 090°07'0 0.0
2018-Feb-22 08:31N 38°49' W 090°07'0 0.4
2018-Feb-22 08:00N 38°49' W 090°07'0 0.1
2018-Feb-22 07:30N 38°49' W 090°07'0 0.0
2018-Feb-22 07:00N 38°49' W 090°07'0 0.0
2018-Feb-22 06:30N 38°49' W 090°07'0 0.0
2018-Feb-22 05:59N 38°49' W 090°07'0 0.0
2018-Feb-22 05:30N 38°49' W 090°07'0 0.0
2018-Feb-22 05:00N 38°49' W 090°07'0 0.0
2018-Feb-22 04:29N 38°49' W 090°07'0 0.0
2018-Feb-22 02:38N 38°49' W 090°07'0 0.0
2018-Feb-22 02:31N 38°49' W 090°07'0 0.0
2018-Feb-22 02:01N 38°49' W 090°07'0 0.0
2018-Feb-22 01:28N 38°49' W 090°07'0 0.0
2018-Feb-22 01:00N 38°49' W 090°07'0 0.0
2018-Feb-22 00:30N 38°49' W 090°07'0 0.0
2018-Feb-22 00:00N 38°49' W 090°07'0 0.1
2018-Feb-21 23:30N 38°49' W 090°07'2 3.7
2018-Feb-21 23:01N 38°47' W 090°07'3 6.9
2018-Feb-21 22:31N 38°44' W 090°09'2 4.8
2018-Feb-21 22:01N 38°42' W 090°11'0 0.6
2018-Feb-21 21:30N 38°42' W 090°11'2 4.0
2018-Feb-21 21:00N 38°40' W 090°11'3 5.6
2018-Feb-21 20:30N 38°37' W 090°11'  
2018-Feb-13 21:09N 32°45' W 091°09'1 4.4
2018-Feb-13 21:00N 32°44' W 091°09'4 0.9
2018-Feb-13 16:24N 32°40' W 091°07'3 3.6
2018-Feb-13 15:32N 32°38' W 091°09'0 0.8
2018-Feb-13 15:18N 32°38' W 091°09'0 0.1
2018-Feb-13 15:00N 32°38' W 091°09'0 0.0
2018-Feb-13 14:25N 32°38' W 091°09'2 3.9
2018-Feb-13 14:01N 32°37' W 091°09'2 4.0
2018-Feb-13 13:31N 32°35' W 091°07'2 4.2
2018-Feb-13 13:00N 32°33' W 091°06'2 4.2
2018-Feb-13 12:30N 32°31' W 091°06'2 4.6
2018-Feb-13 12:01N 32°29' W 091°07'2 4.3
2018-Feb-13 11:30N 32°27' W 091°05'2 4.5
2018-Feb-13 11:01N 32°26' W 091°03'2 4.4
2018-Feb-13 10:30N 32°25' W 091°00'2 3.8
2018-Feb-13 10:01N 32°24' W 090°59'2 3.7
2018-Feb-13 09:31N 32°22' W 091°00'2 3.8
2018-Feb-13 09:00N 32°21' W 090°58'2 3.8
2018-Feb-13 08:31N 32°21' W 090°56'2 4.3
2018-Feb-13 08:01N 32°20' W 090°54'2 3.7
2018-Feb-13 07:30N 32°18' W 090°55'0 0.6
2018-Feb-13 07:00N 32°18' W 090°55'2 3.9
2018-Feb-13 06:31N 32°17' W 090°57'2 4.2
2018-Feb-13 06:01N 32°15' W 090°59'2 3.7
2018-Feb-13 05:31N 32°13' W 090°59'2 4.0
2018-Feb-13 05:01N 32°11' W 090°60'2 4.1
2018-Feb-13 04:30N 32°09' W 091°00'2 4.1
2018-Feb-13 04:01N 32°07' W 091°01'2 3.6
2018-Feb-13 03:30N 32°07' W 091°03'2 4.0
2018-Feb-13 02:59N 32°08' W 091°05'2 3.2
2018-Feb-13 02:31N 32°07' W 091°06'2 4.9
2018-Feb-13 02:00N 32°05' W 091°04'  

Dump ship's entire track history